sensor_id;sensor_type;location;lat;lon;timestamp;temperature;humidity
43991;DHT22;29654;50.784;20.604;2023-05-17T00:01:35;19.10;54.50
43991;DHT22;29654;50.784;20.604;2023-05-17T00:06:38;19.10;54.70
43991;DHT22;29654;50.784;20.604;2023-05-17T00:11:40;19.10;54.60
43991;DHT22;29654;50.784;20.604;2023-05-17T00:16:44;19.20;54.60
43991;DHT22;29654;50.784;20.604;2023-05-17T00:21:47;19.20;54.60
43991;DHT22;29654;50.784;20.604;2023-05-17T00:26:49;19.20;54.60
43991;DHT22;29654;50.784;20.604;2023-05-17T00:31:53;19.20;54.60
43991;DHT22;29654;50.784;20.604;2023-05-17T00:36:56;19.20;55.00
43991;DHT22;29654;50.784;20.604;2023-05-17T00:41:59;19.10;54.90
43991;DHT22;29654;50.784;20.604;2023-05-17T00:47:04;19.10;54.90
43991;DHT22;29654;50.784;20.604;2023-05-17T00:52:06;19.10;55.10
43991;DHT22;29654;50.784;20.604;2023-05-17T00:57:10;19.10;54.80
43991;DHT22;29654;50.784;20.604;2023-05-17T01:02:14;19.10;54.90
43991;DHT22;29654;50.784;20.604;2023-05-17T01:07:17;19.20;55.00
43991;DHT22;29654;50.784;20.604;2023-05-17T01:12:31;19.20;54.80
43991;DHT22;29654;50.784;20.604;2023-05-17T01:17:53;19.20;55.40
43991;DHT22;29654;50.784;20.604;2023-05-17T01:23:12;19.20;55.60
43991;DHT22;29654;50.784;20.604;2023-05-17T01:28:25;19.20;55.70
43991;DHT22;29654;50.784;20.604;2023-05-17T01:33:28;19.20;55.20
43991;DHT22;29654;50.784;20.604;2023-05-17T01:38:32;19.20;55.10
43991;DHT22;29654;50.784;20.604;2023-05-17T01:43:45;19.30;55.00
43991;DHT22;29654;50.784;20.604;2023-05-17T01:48:55;19.30;55.30
43991;DHT22;29654;50.784;20.604;2023-05-17T01:54:04;19.30;55.20
43991;DHT22;29654;50.784;20.604;2023-05-17T01:59:14;19.30;55.00
43991;DHT22;29654;50.784;20.604;2023-05-17T02:04:21;19.30;55.10
43991;DHT22;29654;50.784;20.604;2023-05-17T02:09:23;19.30;54.80
43991;DHT22;29654;50.784;20.604;2023-05-17T02:14:27;19.30;55.00
43991;DHT22;29654;50.784;20.604;2023-05-17T02:19:30;19.30;55.20
43991;DHT22;29654;50.784;20.604;2023-05-17T02:24:34;19.30;55.10
43991;DHT22;29654;50.784;20.604;2023-05-17T02:29:38;19.30;55.20
43991;DHT22;29654;50.784;20.604;2023-05-17T02:34:40;19.30;55.20
43991;DHT22;29654;50.784;20.604;2023-05-17T02:39:43;19.30;55.20
43991;DHT22;29654;50.784;20.604;2023-05-17T02:44:47;19.30;55.20
43991;DHT22;29654;50.784;20.604;2023-05-17T02:49:52;19.30;55.30
43991;DHT22;29654;50.784;20.604;2023-05-17T02:54:55;19.30;55.30
43991;DHT22;29654;50.784;20.604;2023-05-17T02:59:59;19.30;55.20
43991;DHT22;29654;50.784;20.604;2023-05-17T03:05:03;19.30;55.40
43991;DHT22;29654;50.784;20.604;2023-05-17T03:10:07;19.30;55.30
43991;DHT22;29654;50.784;20.604;2023-05-17T03:15:17;19.30;55.30
43991;DHT22;29654;50.784;20.604;2023-05-17T03:20:20;19.30;55.40
43991;DHT22;29654;50.784;20.604;2023-05-17T03:25:23;19.30;55.30
43991;DHT22;29654;50.784;20.604;2023-05-17T03:30:28;19.30;55.30
43991;DHT22;29654;50.784;20.604;2023-05-17T03:35:32;19.30;55.40
43991;DHT22;29654;50.784;20.604;2023-05-17T03:40:34;19.30;55.30
43991;DHT22;29654;50.784;20.604;2023-05-17T03:45:38;19.30;55.30
43991;DHT22;29654;50.784;20.604;2023-05-17T03:50:42;19.20;55.40
43991;DHT22;29654;50.784;20.604;2023-05-17T03:55:46;19.20;55.40
43991;DHT22;29654;50.784;20.604;2023-05-17T04:00:52;19.20;55.60
43991;DHT22;29654;50.784;20.604;2023-05-17T04:06:02;19.10;55.60
43991;DHT22;29654;50.784;20.604;2023-05-17T04:11:08;19.10;56.10
43991;DHT22;29654;50.784;20.604;2023-05-17T04:16:15;19.00;55.80
43991;DHT22;29654;50.784;20.604;2023-05-17T04:21:19;19.00;56.00
43991;DHT22;29654;50.784;20.604;2023-05-17T04:26:22;19.00;55.90
43991;DHT22;29654;50.784;20.604;2023-05-17T04:31:26;19.00;56.00
43991;DHT22;29654;50.784;20.604;2023-05-17T04:36:29;19.00;56.10
43991;DHT22;29654;50.784;20.604;2023-05-17T04:41:32;19.00;55.90
43991;DHT22;29654;50.784;20.604;2023-05-17T04:46:38;19.00;56.00
43991;DHT22;29654;50.784;20.604;2023-05-17T04:51:42;19.00;56.20
43991;DHT22;29654;50.784;20.604;2023-05-17T04:56:45;19.00;56.00
43991;DHT22;29654;50.784;20.604;2023-05-17T05:01:58;19.00;56.20
43991;DHT22;29654;50.784;20.604;2023-05-17T05:07:01;19.00;56.50
43991;DHT22;29654;50.784;20.604;2023-05-17T05:12:05;19.00;56.30
43991;DHT22;29654;50.784;20.604;2023-05-17T05:17:11;19.00;56.30
43991;DHT22;29654;50.784;20.604;2023-05-17T05:22:15;19.00;56.50
43991;DHT22;29654;50.784;20.604;2023-05-17T05:27:18;19.00;56.40
43991;DHT22;29654;50.784;20.604;2023-05-17T05:32:26;19.10;56.40
43991;DHT22;29654;50.784;20.604;2023-05-17T05:37:28;19.10;57.60
43991;DHT22;29654;50.784;20.604;2023-05-17T05:42:31;19.00;56.70
43991;DHT22;29654;50.784;20.604;2023-05-17T05:47:35;18.90;56.60
43991;DHT22;29654;50.784;20.604;2023-05-17T05:52:38;19.00;56.90
43991;DHT22;29654;50.784;20.604;2023-05-17T05:57:42;19.00;56.60
43991;DHT22;29654;50.784;20.604;2023-05-17T06:02:47;19.00;56.50
43991;DHT22;29654;50.784;20.604;2023-05-17T06:07:49;19.10;56.60
43991;DHT22;29654;50.784;20.604;2023-05-17T06:12:52;19.10;56.50
43991;DHT22;29654;50.784;20.604;2023-05-17T06:17:56;19.10;56.60
43991;DHT22;29654;50.784;20.604;2023-05-17T06:22:58;19.10;56.70
43991;DHT22;29654;50.784;20.604;2023-05-17T06:28:02;19.10;56.60
43991;DHT22;29654;50.784;20.604;2023-05-17T06:33:06;19.10;56.70
43991;DHT22;29654;50.784;20.604;2023-05-17T06:38:09;19.10;56.70
43991;DHT22;29654;50.784;20.604;2023-05-17T06:43:12;19.10;56.50
43991;DHT22;29654;50.784;20.604;2023-05-17T06:48:16;19.10;56.50
43991;DHT22;29654;50.784;20.604;2023-05-17T06:53:19;19.10;56.60
43991;DHT22;29654;50.784;20.604;2023-05-17T06:58:22;19.10;56.60
43991;DHT22;29654;50.784;20.604;2023-05-17T07:03:26;19.10;56.70
43991;DHT22;29654;50.784;20.604;2023-05-17T07:08:28;19.10;56.90
43991;DHT22;29654;50.784;20.604;2023-05-17T07:13:31;19.10;56.80
43991;DHT22;29654;50.784;20.604;2023-05-17T07:18:35;19.20;56.80
43991;DHT22;29654;50.784;20.604;2023-05-17T07:23:38;19.20;57.00
43991;DHT22;29654;50.784;20.604;2023-05-17T07:28:40;19.20;56.90
43991;DHT22;29654;50.784;20.604;2023-05-17T07:33:45;19.20;56.90
43991;DHT22;29654;50.784;20.604;2023-05-17T07:38:48;19.30;57.10
43991;DHT22;29654;50.784;20.604;2023-05-17T07:43:50;19.30;57.00
43991;DHT22;29654;50.784;20.604;2023-05-17T07:48:54;19.30;56.80
43991;DHT22;29654;50.784;20.604;2023-05-17T07:53:57;19.30;57.10
43991;DHT22;29654;50.784;20.604;2023-05-17T07:58:59;19.40;57.10
43991;DHT22;29654;50.784;20.604;2023-05-17T08:04:03;19.40;57.20
43991;DHT22;29654;50.784;20.604;2023-05-17T08:09:06;19.50;57.10
43991;DHT22;29654;50.784;20.604;2023-05-17T08:14:09;19.50;56.90
43991;DHT22;29654;50.784;20.604;2023-05-17T08:19:13;19.50;57.00
43991;DHT22;29654;50.784;20.604;2023-05-17T08:24:16;19.50;57.10
43991;DHT22;29654;50.784;20.604;2023-05-17T08:29:18;19.50;56.90
43991;DHT22;29654;50.784;20.604;2023-05-17T08:34:22;19.50;56.80
43991;DHT22;29654;50.784;20.604;2023-05-17T08:39:25;19.50;56.90
43991;DHT22;29654;50.784;20.604;2023-05-17T08:44:28;19.50;56.80
43991;DHT22;29654;50.784;20.604;2023-05-17T08:49:32;19.50;56.80
43991;DHT22;29654;50.784;20.604;2023-05-17T08:54:37;19.50;57.00
43991;DHT22;29654;50.784;20.604;2023-05-17T08:59:40;19.60;56.90
43991;DHT22;29654;50.784;20.604;2023-05-17T09:04:44;19.60;56.80
43991;DHT22;29654;50.784;20.604;2023-05-17T09:09:50;19.70;56.90
43991;DHT22;29654;50.784;20.604;2023-05-17T09:14:53;19.70;56.80
43991;DHT22;29654;50.784;20.604;2023-05-17T09:20:21;19.70;56.60
43991;DHT22;29654;50.784;20.604;2023-05-17T09:25:25;19.70;57.00
43991;DHT22;29654;50.784;20.604;2023-05-17T09:30:30;19.70;56.60
43991;DHT22;29654;50.784;20.604;2023-05-17T09:35:35;19.70;56.70
43991;DHT22;29654;50.784;20.604;2023-05-17T09:40:40;19.80;56.70
43991;DHT22;29654;50.784;20.604;2023-05-17T09:45:43;19.80;56.50
43991;DHT22;29654;50.784;20.604;2023-05-17T09:50:48;19.80;56.50
43991;DHT22;29654;50.784;20.604;2023-05-17T09:55:53;19.80;56.50
43991;DHT22;29654;50.784;20.604;2023-05-17T10:00:59;19.80;56.50
43991;DHT22;29654;50.784;20.604;2023-05-17T10:06:06;19.70;56.50
43991;DHT22;29654;50.784;20.604;2023-05-17T10:11:10;19.70;56.50
43991;DHT22;29654;50.784;20.604;2023-05-17T10:16:14;19.60;56.50
43991;DHT22;29654;50.784;20.604;2023-05-17T10:21:21;19.60;56.40
43991;DHT22;29654;50.784;20.604;2023-05-17T10:26:24;19.60;56.50
43991;DHT22;29654;50.784;20.604;2023-05-17T10:31:29;19.50;56.40
43991;DHT22;29654;50.784;20.604;2023-05-17T10:36:34;19.50;56.40
43991;DHT22;29654;50.784;20.604;2023-05-17T10:41:41;19.40;56.40
43991;DHT22;29654;50.784;20.604;2023-05-17T10:46:50;19.40;56.60
43991;DHT22;29654;50.784;20.604;2023-05-17T10:51:57;19.40;56.80
43991;DHT22;29654;50.784;20.604;2023-05-17T10:57:03;19.30;56.60
43991;DHT22;29654;50.784;20.604;2023-05-17T11:02:07;19.30;56.60
43991;DHT22;29654;50.784;20.604;2023-05-17T11:07:23;19.30;56.80
43991;DHT22;29654;50.784;20.604;2023-05-17T11:12:30;19.20;57.10
43991;DHT22;29654;50.784;20.604;2023-05-17T11:17:46;19.10;56.80
43991;DHT22;29654;50.784;20.604;2023-05-17T11:22:55;19.10;56.80
43991;DHT22;29654;50.784;20.604;2023-05-17T11:27:59;19.10;57.10
43991;DHT22;29654;50.784;20.604;2023-05-17T11:33:03;19.10;57.00
43991;DHT22;29654;50.784;20.604;2023-05-17T11:38:16;19.10;57.10
43991;DHT22;29654;50.784;20.604;2023-05-17T11:43:20;19.20;57.50
43991;DHT22;29654;50.784;20.604;2023-05-17T11:48:24;19.20;57.00
43991;DHT22;29654;50.784;20.604;2023-05-17T11:53:30;19.20;57.00
43991;DHT22;29654;50.784;20.604;2023-05-17T11:58:32;19.20;57.10
43991;DHT22;29654;50.784;20.604;2023-05-17T12:03:36;19.20;57.00
43991;DHT22;29654;50.784;20.604;2023-05-17T12:08:45;19.20;57.10
43991;DHT22;29654;50.784;20.604;2023-05-17T12:13:48;19.30;57.40
43991;DHT22;29654;50.784;20.604;2023-05-17T12:18:51;19.30;57.10
43991;DHT22;29654;50.784;20.604;2023-05-17T12:23:56;19.30;56.80
43991;DHT22;29654;50.784;20.604;2023-05-17T12:29:00;19.30;56.80
43991;DHT22;29654;50.784;20.604;2023-05-17T12:34:04;19.20;56.70
43991;DHT22;29654;50.784;20.604;2023-05-17T12:39:10;19.20;56.80
43991;DHT22;29654;50.784;20.604;2023-05-17T12:44:14;19.10;56.80
43991;DHT22;29654;50.784;20.604;2023-05-17T12:49:17;19.00;56.70
43991;DHT22;29654;50.784;20.604;2023-05-17T12:54:28;19.00;56.60
43991;DHT22;29654;50.784;20.604;2023-05-17T12:59:32;18.90;57.00
43991;DHT22;29654;50.784;20.604;2023-05-17T13:04:36;18.80;56.70
43991;DHT22;29654;50.784;20.604;2023-05-17T13:09:47;18.70;56.80
43991;DHT22;29654;50.784;20.604;2023-05-17T13:14:50;18.70;57.20
43991;DHT22;29654;50.784;20.604;2023-05-17T13:19:54;18.60;56.80
43991;DHT22;29654;50.784;20.604;2023-05-17T13:24:58;18.50;56.60
43991;DHT22;29654;50.784;20.604;2023-05-17T13:30:01;18.40;56.70
43991;DHT22;29654;50.784;20.604;2023-05-17T13:35:05;18.30;56.80
43991;DHT22;29654;50.784;20.604;2023-05-17T13:40:10;18.20;56.80
43991;DHT22;29654;50.784;20.604;2023-05-17T13:45:14;18.10;57.00
43991;DHT22;29654;50.784;20.604;2023-05-17T13:50:16;18.00;56.90
43991;DHT22;29654;50.784;20.604;2023-05-17T13:55:22;18.00;57.20
43991;DHT22;29654;50.784;20.604;2023-05-17T14:00:24;17.90;58.10
43991;DHT22;29654;50.784;20.604;2023-05-17T14:05:27;17.80;57.50
43991;DHT22;29654;50.784;20.604;2023-05-17T14:10:34;17.70;57.70
43991;DHT22;29654;50.784;20.604;2023-05-17T14:15:37;17.70;57.90
43991;DHT22;29654;50.784;20.604;2023-05-17T14:20:39;17.70;57.90
43991;DHT22;29654;50.784;20.604;2023-05-17T14:25:47;17.70;57.90
43991;DHT22;29654;50.784;20.604;2023-05-17T14:30:50;17.70;57.80
43991;DHT22;29654;50.784;20.604;2023-05-17T14:35:53;17.70;57.90
43991;DHT22;29654;50.784;20.604;2023-05-17T14:40:57;17.70;57.90
43991;DHT22;29654;50.784;20.604;2023-05-17T14:46:00;17.60;57.90
43991;DHT22;29654;50.784;20.604;2023-05-17T14:51:03;17.60;57.80
43991;DHT22;29654;50.784;20.604;2023-05-17T14:56:08;17.60;57.90
43991;DHT22;29654;50.784;20.604;2023-05-17T15:01:10;17.50;58.10
43991;DHT22;29654;50.784;20.604;2023-05-17T15:06:13;17.50;57.80
43991;DHT22;29654;50.784;20.604;2023-05-17T15:11:17;17.40;57.60
43991;DHT22;29654;50.784;20.604;2023-05-17T15:16:19;17.30;57.40
43991;DHT22;29654;50.784;20.604;2023-05-17T15:21:22;17.10;57.30
43991;DHT22;29654;50.784;20.604;2023-05-17T15:26:26;17.00;57.40
43991;DHT22;29654;50.784;20.604;2023-05-17T15:31:29;16.80;57.30
43991;DHT22;29654;50.784;20.604;2023-05-17T15:36:32;16.70;57.50
43991;DHT22;29654;50.784;20.604;2023-05-17T15:41:37;16.60;57.70
43991;DHT22;29654;50.784;20.604;2023-05-17T15:46:40;16.60;57.90
43991;DHT22;29654;50.784;20.604;2023-05-17T15:51:42;16.50;57.90
43991;DHT22;29654;50.784;20.604;2023-05-17T15:56:46;16.40;57.80
43991;DHT22;29654;50.784;20.604;2023-05-17T16:01:49;16.40;58.00
43991;DHT22;29654;50.784;20.604;2023-05-17T16:06:52;16.40;58.00
43991;DHT22;29654;50.784;20.604;2023-05-17T16:11:56;16.40;57.90
43991;DHT22;29654;50.784;20.604;2023-05-17T16:16:58;16.30;57.90
43991;DHT22;29654;50.784;20.604;2023-05-17T16:22:02;16.40;57.90
43991;DHT22;29654;50.784;20.604;2023-05-17T16:27:06;16.40;58.10
43991;DHT22;29654;50.784;20.604;2023-05-17T16:32:09;16.40;58.10
43991;DHT22;29654;50.784;20.604;2023-05-17T16:37:12;16.40;58.00
43991;DHT22;29654;50.784;20.604;2023-05-17T16:42:16;16.40;58.10
43991;DHT22;29654;50.784;20.604;2023-05-17T16:47:19;16.40;58.10
43991;DHT22;29654;50.784;20.604;2023-05-17T16:52:26;16.50;58.00
43991;DHT22;29654;50.784;20.604;2023-05-17T16:57:31;16.50;58.10
43991;DHT22;29654;50.784;20.604;2023-05-17T17:02:34;16.50;58.10
43991;DHT22;29654;50.784;20.604;2023-05-17T17:07:36;16.50;58.10
43991;DHT22;29654;50.784;20.604;2023-05-17T17:12:40;16.50;58.00
43991;DHT22;29654;50.784;20.604;2023-05-17T17:17:43;16.50;58.20
43991;DHT22;29654;50.784;20.604;2023-05-17T17:22:48;16.50;58.00
43991;DHT22;29654;50.784;20.604;2023-05-17T17:27:52;16.50;58.20
43991;DHT22;29654;50.784;20.604;2023-05-17T17:32:54;16.50;58.20
43991;DHT22;29654;50.784;20.604;2023-05-17T17:37:57;16.50;58.20
43991;DHT22;29654;50.784;20.604;2023-05-17T17:43:03;16.50;58.20
43991;DHT22;29654;50.784;20.604;2023-05-17T17:48:06;16.60;58.30
43991;DHT22;29654;50.784;20.604;2023-05-17T17:53:08;16.60;58.30
43991;DHT22;29654;50.784;20.604;2023-05-17T17:58:12;16.60;58.30
43991;DHT22;29654;50.784;20.604;2023-05-17T18:03:15;16.60;58.40
43991;DHT22;29654;50.784;20.604;2023-05-17T18:08:18;16.60;58.40
43991;DHT22;29654;50.784;20.604;2023-05-17T18:13:22;16.60;58.40
43991;DHT22;29654;50.784;20.604;2023-05-17T18:18:24;16.60;58.50
43991;DHT22;29654;50.784;20.604;2023-05-17T18:23:27;16.60;58.50
43991;DHT22;29654;50.784;20.604;2023-05-17T18:28:31;16.60;58.50
43991;DHT22;29654;50.784;20.604;2023-05-17T18:33:35;16.70;58.50
43991;DHT22;29654;50.784;20.604;2023-05-17T18:38:38;16.70;58.50
43991;DHT22;29654;50.784;20.604;2023-05-17T18:43:42;16.70;58.50
43991;DHT22;29654;50.784;20.604;2023-05-17T18:48:45;16.80;58.50
43991;DHT22;29654;50.784;20.604;2023-05-17T18:53:48;16.80;58.40
43991;DHT22;29654;50.784;20.604;2023-05-17T18:58:52;16.80;58.40
43991;DHT22;29654;50.784;20.604;2023-05-17T19:03:55;16.90;58.40
43991;DHT22;29654;50.784;20.604;2023-05-17T19:08:58;16.90;58.20
43991;DHT22;29654;50.784;20.604;2023-05-17T19:14:02;16.90;58.20
43991;DHT22;29654;50.784;20.604;2023-05-17T19:19:05;16.90;58.50
43991;DHT22;29654;50.784;20.604;2023-05-17T19:24:08;16.90;58.20
43991;DHT22;29654;50.784;20.604;2023-05-17T19:29:12;16.90;58.30
43991;DHT22;29654;50.784;20.604;2023-05-17T19:34:15;16.90;58.20
43991;DHT22;29654;50.784;20.604;2023-05-17T19:39:18;16.90;58.20
43991;DHT22;29654;50.784;20.604;2023-05-17T19:44:22;17.00;58.20
43991;DHT22;29654;50.784;20.604;2023-05-17T19:49:25;17.00;58.30
43991;DHT22;29654;50.784;20.604;2023-05-17T19:54:28;17.00;58.10
43991;DHT22;29654;50.784;20.604;2023-05-17T19:59:32;17.00;58.20
43991;DHT22;29654;50.784;20.604;2023-05-17T20:04:35;17.00;58.20
43991;DHT22;29654;50.784;20.604;2023-05-17T20:09:37;17.00;58.70
43991;DHT22;29654;50.784;20.604;2023-05-17T20:14:41;17.00;58.00
43991;DHT22;29654;50.784;20.604;2023-05-17T20:19:44;17.00;58.10
43991;DHT22;29654;50.784;20.604;2023-05-17T20:24:47;16.90;58.00
43991;DHT22;29654;50.784;20.604;2023-05-17T20:29:51;16.90;58.10
43991;DHT22;29654;50.784;20.604;2023-05-17T20:34:54;16.90;58.10
43991;DHT22;29654;50.784;20.604;2023-05-17T20:39:56;16.90;58.10
43991;DHT22;29654;50.784;20.604;2023-05-17T20:45:01;16.90;58.10
43991;DHT22;29654;50.784;20.604;2023-05-17T20:50:04;16.90;58.10
43991;DHT22;29654;50.784;20.604;2023-05-17T20:55:08;16.90;58.10
43991;DHT22;29654;50.784;20.604;2023-05-17T21:00:13;16.90;58.00
43991;DHT22;29654;50.784;20.604;2023-05-17T21:05:20;16.90;58.00
43991;DHT22;29654;50.784;20.604;2023-05-17T21:10:23;16.90;58.00
43991;DHT22;29654;50.784;20.604;2023-05-17T21:15:27;16.90;57.90
43991;DHT22;29654;50.784;20.604;2023-05-17T21:20:30;16.80;58.00
43991;DHT22;29654;50.784;20.604;2023-05-17T21:25:32;16.80;57.90
43991;DHT22;29654;50.784;20.604;2023-05-17T21:30:38;16.80;57.90
43991;DHT22;29654;50.784;20.604;2023-05-17T21:35:41;16.70;57.90
43991;DHT22;29654;50.784;20.604;2023-05-17T21:40:43;16.70;58.00
43991;DHT22;29654;50.784;20.604;2023-05-17T21:45:47;16.70;58.00
43991;DHT22;29654;50.784;20.604;2023-05-17T21:50:50;16.70;58.00
43991;DHT22;29654;50.784;20.604;2023-05-17T21:55:53;16.70;58.10
43991;DHT22;29654;50.784;20.604;2023-05-17T22:00:57;16.70;58.10
43991;DHT22;29654;50.784;20.604;2023-05-17T22:06:00;16.70;58.00
43991;DHT22;29654;50.784;20.604;2023-05-17T22:11:03;16.70;57.90
43991;DHT22;29654;50.784;20.604;2023-05-17T22:16:07;16.70;57.90
43991;DHT22;29654;50.784;20.604;2023-05-17T22:21:10;16.70;58.00
43991;DHT22;29654;50.784;20.604;2023-05-17T22:26:15;16.70;57.80
43991;DHT22;29654;50.784;20.604;2023-05-17T22:31:19;16.70;57.80
43991;DHT22;29654;50.784;20.604;2023-05-17T22:36:22;16.80;58.00
43991;DHT22;29654;50.784;20.604;2023-05-17T22:41:26;16.70;57.90
43991;DHT22;29654;50.784;20.604;2023-05-17T22:46:30;16.70;57.90
43991;DHT22;29654;50.784;20.604;2023-05-17T22:51:33;16.70;58.00
43991;DHT22;29654;50.784;20.604;2023-05-17T22:56:36;16.70;58.00
43991;DHT22;29654;50.784;20.604;2023-05-17T23:01:40;16.70;58.10
43991;DHT22;29654;50.784;20.604;2023-05-17T23:06:42;16.70;58.20
43991;DHT22;29654;50.784;20.604;2023-05-17T23:11:45;16.70;58.00
43991;DHT22;29654;50.784;20.604;2023-05-17T23:16:51;16.70;57.90
43991;DHT22;29654;50.784;20.604;2023-05-17T23:21:53;16.60;57.90
43991;DHT22;29654;50.784;20.604;2023-05-17T23:26:56;16.60;57.90
43991;DHT22;29654;50.784;20.604;2023-05-17T23:32:00;16.60;58.10
43991;DHT22;29654;50.784;20.604;2023-05-17T23:37:03;16.60;58.00
43991;DHT22;29654;50.784;20.604;2023-05-17T23:42:06;16.60;58.00
43991;DHT22;29654;50.784;20.604;2023-05-17T23:47:11;16.60;58.10
43991;DHT22;29654;50.784;20.604;2023-05-17T23:52:13;16.60;58.10
43991;DHT22;29654;50.784;20.604;2023-05-17T23:57:18;16.60;58.00
